Time;durP1;ratioP1;P1;durP2;ratioP2;P2;SDS_P1;SDS_P2;PMS_P1;PMS_P2;Temp;Humidity;BMP_temperature;BMP_pressure;BME280_temperature;BME280_humidity;BME280_pressure;Samples;Min_cycle;Max_cycle;Signal;HPM_P1;HPM_P2
2021/12/25 00:01:20;;;;;;;17.95;10.65;;;;;;;7.80;74.42;100679.88;4932992;28;20871;-59
2021/12/25 00:03:45;;;;;;;19.35;11.40;;;;;;;7.72;73.95;100679.72;4928603;28;20077;-59
2021/12/25 00:06:11;;;;;;;21.98;10.95;;;;;;;7.41;74.84;100687.66;4936121;28;20050;-59
2021/12/25 00:08:36;;;;;;;21.35;11.60;;;;;;;7.50;74.40;100693.06;4939129;28;20129;-60
2021/12/25 00:11:04;;;;;;;22.17;11.63;;;;;;;7.28;74.92;100687.38;4933281;28;20067;-60
2021/12/25 00:13:30;;;;;;;22.70;12.00;;;;;;;7.21;74.94;100685.47;4925897;28;20462;-59
2021/12/25 00:15:55;;;;;;;26.65;12.23;;;;;;;7.27;75.18;100684.72;4938515;28;20047;-59
2021/12/25 00:18:21;;;;;;;26.77;12.93;;;;;;;7.28;74.56;100686.50;4945197;28;20068;-59
2021/12/25 00:20:49;;;;;;;27.17;13.32;;;;;;;7.31;74.68;100684.88;4943546;28;20039;-60
2021/12/25 00:23:14;;;;;;;26.08;13.52;;;;;;;7.19;74.62;100687.16;4939383;28;20051;-60
2021/12/25 00:25:45;;;;;;;34.72;14.77;;;;;;;7.04;74.80;100678.13;4934975;28;20138;-59
2021/12/25 00:36:09;;;;;;;34.85;15.27;;;;;;;6.74;75.48;100691.19;4934327;28;20081;-59
2021/12/25 00:38:36;;;;;;;35.88;15.93;;;;;;;6.68;75.41;100698.81;4929721;28;20153;-59
2021/12/25 00:41:02;;;;;;;33.45;15.52;;;;;;;6.82;75.24;100682.78;4938513;28;20038;-59
2021/12/25 00:43:30;;;;;;;33.90;15.90;;;;;;;6.76;75.19;100684.34;4927097;28;20050;-59
2021/12/25 00:45:55;;;;;;;38.20;16.17;;;;;;;6.88;75.11;100684.66;4938078;28;20049;-61
2021/12/25 00:48:21;;;;;;;40.03;16.65;;;;;;;6.78;75.28;100704.25;4934514;28;20855;-61
2021/12/25 00:50:46;;;;;;;41.35;17.33;;;;;;;6.79;74.58;100689.59;4945164;28;20054;-59
2021/12/25 00:53:11;;;;;;;41.20;17.42;;;;;;;6.81;74.93;100700.88;4942740;28;20494;-60
2021/12/25 00:55:37;;;;;;;36.05;16.08;;;;;;;6.71;74.78;100696.31;4933350;28;20517;-59
2021/12/25 00:58:02;;;;;;;37.40;16.60;;;;;;;6.37;75.62;100695.41;4944378;28;20477;-59
2021/12/25 01:00:28;;;;;;;38.25;17.35;;;;;;;6.48;75.65;100695.69;4935451;28;20332;-60
2021/12/25 01:02:53;;;;;;;35.55;17.17;;;;;;;6.32;76.03;100688.34;4943999;28;20043;-60
2021/12/25 01:05:18;;;;;;;34.05;16.33;;;;;;;6.43;74.96;100698.16;4941435;28;20058;-59
2021/12/25 01:07:45;;;;;;;36.22;16.15;;;;;;;6.34;75.65;100694.47;4935390;28;20805;-59
2021/12/25 01:10:15;;;;;;;32.72;15.55;;;;;;;6.40;75.22;100705.81;4944902;28;20104;-59
2021/12/25 01:13:02;;;;;;;32.50;14.98;;;;;;;6.20;75.87;100700.94;4935907;28;20646;-59
2021/12/25 01:15:42;;;;;;;31.27;14.20;;;;;;;6.08;75.89;100712.72;4927336;28;20047;-58
2021/12/25 01:31:21;;;;;;;27.65;13.90;;;;;;;6.43;74.39;100698.16;4943555;28;20046;-59
2021/12/25 01:39:39;;;;;;;26.73;13.35;;;;;;;6.36;74.33;100692.75;4943937;28;20031;-60
2021/12/25 01:47:48;;;;;;;28.67;14.00;;;;;;;6.27;74.31;100683.06;4935373;28;20938;-60
2021/12/25 01:50:27;;;;;;;24.60;13.50;;;;;;;6.19;74.55;100689.72;4934036;28;21382;-59
2021/12/25 01:52:54;;;;;;;23.17;12.85;;;;;;;5.84;74.98;100686.09;4939074;28;20078;-59
2021/12/25 01:55:22;;;;;;;23.83;13.52;;;;;;;6.03;74.56;100684.94;4928107;28;20046;-59
2021/12/25 01:57:48;;;;;;;25.63;13.23;;;;;;;6.09;74.65;100698.06;4930799;28;20113;-59
2021/12/25 02:00:19;;;;;;;25.63;13.27;;;;;;;6.23;74.47;100694.13;4951598;28;20125;-60
2021/12/25 02:02:51;;;;;;;25.98;13.18;;;;;;;6.21;74.18;100682.88;4939733;28;20070;-60
2021/12/25 02:05:18;;;;;;;26.73;13.27;;;;;;;5.97;74.83;100685.66;4934150;28;20114;-60
2021/12/25 02:07:44;;;;;;;28.42;14.43;;;;;;;6.11;74.44;100688.63;4934209;28;20054;-60
2021/12/25 02:10:11;;;;;;;25.80;13.07;;;;;;;6.05;74.63;100691.91;4938478;28;20039;-59
2021/12/25 02:12:37;;;;;;;26.38;14.02;;;;;;;6.06;74.86;100704.03;4942283;28;20042;-59
2021/12/25 02:15:10;;;;;;;25.90;13.32;;;;;;;5.95;74.95;100713.19;4937452;28;20425;-60
2021/12/25 02:20:29;;;;;;;20.70;12.32;;;;;;;5.85;74.29;100707.69;4941454;28;20054;-59
2021/12/25 02:23:01;;;;;;;23.52;13.05;;;;;;;5.74;74.45;100699.56;4934019;28;20094;-59
2021/12/25 02:25:36;;;;;;;22.85;13.43;;;;;;;5.57;74.44;100718.88;4937113;28;20130;-60
2021/12/25 02:28:05;;;;;;;25.48;13.88;;;;;;;5.29;74.93;100715.44;4931640;28;20916;-59
2021/12/25 02:30:31;;;;;;;23.85;13.50;;;;;;;5.49;74.47;100715.19;4942760;28;20589;-60
2021/12/25 02:32:58;;;;;;;21.75;13.10;;;;;;;5.29;74.72;100711.97;4955242;28;20046;-60
2021/12/25 02:35:24;;;;;;;21.42;13.00;;;;;;;5.39;74.62;100713.13;4933031;28;20089;-63
2021/12/25 02:37:50;;;;;;;22.13;12.40;;;;;;;5.48;74.59;100711.72;4934865;28;21428;-59
2021/12/25 02:40:16;;;;;;;20.83;12.68;;;;;;;5.40;74.23;100715.78;4934243;28;20689;-60
2021/12/25 02:42:41;;;;;;;20.38;12.38;;;;;;;5.62;73.93;100718.19;4941210;28;20054;-59
2021/12/25 02:45:15;;;;;;;19.50;12.05;;;;;;;5.41;73.91;100722.72;4931771;28;20089;-60
2021/12/25 02:47:42;;;;;;;19.90;12.63;;;;;;;5.47;73.33;100738.41;4911486;28;20554;-59
2021/12/25 02:50:08;;;;;;;21.48;13.13;;;;;;;5.20;73.64;100715.13;4946008;28;20031;-60
2021/12/25 02:52:34;;;;;;;24.65;13.63;;;;;;;5.27;74.53;100721.38;4924774;23;20401;-59
2021/12/25 02:54:59;;;;;;;22.85;12.57;;;;;;;5.31;74.07;100729.28;4941381;28;21104;-59
2021/12/25 02:57:24;;;;;;;22.38;13.18;;;;;;;5.06;74.64;100728.44;4932707;28;20070;-60
2021/12/25 02:59:50;;;;;;;21.95;12.65;;;;;;;5.18;74.65;100728.84;4925384;28;20039;-58
2021/12/25 03:02:21;;;;;;;21.13;12.63;;;;;;;5.34;73.85;100722.47;4940219;28;20045;-58
2021/12/25 03:04:48;;;;;;;21.50;12.25;;;;;;;5.43;73.17;100725.34;4939462;28;20386;-59
2021/12/25 03:07:14;;;;;;;20.98;11.80;;;;;;;5.13;74.02;100728.69;4933741;28;20753;-59
2021/12/25 03:09:41;;;;;;;19.42;12.07;;;;;;;5.11;73.63;100732.06;4932442;28;20186;-60
2021/12/25 03:12:08;;;;;;;23.00;12.48;;;;;;;5.25;74.16;100735.94;4941807;28;20077;-61
2021/12/25 03:14:38;;;;;;;20.92;11.98;;;;;;;5.09;74.13;100725.97;4939841;28;20069;-59
2021/12/25 03:17:04;;;;;;;21.15;12.23;;;;;;;5.36;73.69;100737.19;4939313;28;20130;-59
2021/12/25 03:19:34;;;;;;;20.23;12.15;;;;;;;4.90;73.83;100742.53;4929806;28;20515;-59
2021/12/25 03:22:00;;;;;;;20.85;12.13;;;;;;;5.26;73.23;100745.47;4940420;28;20062;-60
2021/12/25 03:24:26;;;;;;;20.88;11.70;;;;;;;5.28;72.47;100744.69;4934132;28;20073;-60
2021/12/25 03:26:54;;;;;;;23.92;12.82;;;;;;;5.25;73.74;100752.34;4951974;28;20502;-59
2021/12/25 03:29:20;;;;;;;21.98;12.40;;;;;;;5.25;73.31;100754.03;4936770;28;20110;-59
2021/12/25 03:31:46;;;;;;;23.38;12.30;;;;;;;5.06;73.67;100749.97;4932878;28;20105;-59
2021/12/25 03:34:12;;;;;;;22.92;12.68;;;;;;;4.93;73.03;100771.09;4937771;28;20079;-59
2021/12/25 03:36:37;;;;;;;22.67;12.93;;;;;;;4.87;73.98;100750.22;4942486;28;20042;-59
2021/12/25 03:39:04;;;;;;;21.55;12.35;;;;;;;5.12;73.15;100770.84;4934993;28;20051;-59
2021/12/25 03:41:30;;;;;;;22.10;12.90;;;;;;;5.17;73.29;100761.56;4930508;28;20064;-60
2021/12/25 03:43:57;;;;;;;22.95;12.35;;;;;;;4.94;73.03;100751.28;4939731;28;20159;-60
2021/12/25 03:46:22;;;;;;;21.83;12.65;;;;;;;5.13;73.35;100766.56;4940344;28;20062;-60
2021/12/25 03:59:12;;;;;;;25.10;13.38;;;;;;;5.21;72.73;100771.16;4935092;28;21217;-59
2021/12/25 04:04:53;;;;;;;23.90;13.40;;;;;;;5.07;73.23;100779.28;4927230;28;20050;-59
2021/12/25 04:07:04;;;;;;;24.10;13.23;;;;;;;5.15;72.74;100788.16;4943924;28;20410;-59
2021/12/25 04:09:31;;;;;;;26.25;14.02;;;;;;;5.08;73.06;100783.63;4932241;28;20046;-59
2021/12/25 04:12:03;;;;;;;27.13;13.48;;;;;;;4.79;73.00;100791.25;4932213;28;20126;-59
2021/12/25 04:14:28;;;;;;;24.60;13.10;;;;;;;4.97;72.45;100791.00;4933931;28;20070;-59
2021/12/25 04:16:53;;;;;;;24.27;13.43;;;;;;;4.78;72.87;100792.09;4937330;28;20081;-59
2021/12/25 04:19:20;;;;;;;25.65;13.77;;;;;;;4.69;73.47;100788.31;4938132;28;20395;-58
2021/12/25 04:21:56;;;;;;;26.77;14.00;;;;;;;4.58;73.93;100789.59;4935324;28;20053;-58
2021/12/25 04:24:22;;;;;;;25.27;13.65;;;;;;;4.99;73.17;100796.25;4931789;28;20039;-58
2021/12/25 04:26:49;;;;;;;26.00;13.38;;;;;;;4.92;72.70;100796.84;4939092;28;20456;-61
2021/12/25 04:42:52;;;;;;;28.27;14.30;;;;;;;4.77;73.29;100812.69;4936839;28;20054;-58
2021/12/25 05:01:59;;;;;;;27.50;14.73;;;;;;;4.31;73.26;100830.78;4952593;28;20268;-59
2021/12/25 05:04:30;;;;;;;28.98;14.52;;;;;;;4.22;74.14;100826.16;4958037;28;20054;-59
2021/12/25 05:06:55;;;;;;;26.63;14.65;;;;;;;4.25;74.11;100835.72;4960188;28;20937;-60
2021/12/25 05:09:21;;;;;;;29.65;14.85;;;;;;;4.23;74.02;100832.19;4937139;28;20648;-59
2021/12/25 05:11:46;;;;;;;31.40;15.02;;;;;;;4.39;72.98;100831.97;4954471;28;20168;-59
2021/12/25 05:14:12;;;;;;;34.25;15.65;;;;;;;4.29;73.31;100833.31;4959199;28;20062;-60
2021/12/25 05:16:38;;;;;;;31.92;15.80;;;;;;;4.55;73.25;100836.84;4953116;28;20053;-60
2021/12/25 05:19:03;;;;;;;28.38;15.07;;;;;;;4.44;72.60;100844.22;4949738;28;20057;-59
2021/12/25 05:21:28;;;;;;;28.50;14.57;;;;;;;4.36;72.97;100848.19;4946835;28;20486;-58
2021/12/25 05:23:54;;;;;;;28.65;15.10;;;;;;;4.23;73.03;100845.97;4960753;28;20050;-59
2021/12/25 05:26:19;;;;;;;29.70;15.45;;;;;;;4.31;72.42;100846.28;4949352;28;20046;-60
2021/12/25 05:28:52;;;;;;;28.67;14.75;;;;;;;4.22;73.46;100858.81;4955840;28;20043;-56
2021/12/25 05:31:18;;;;;;;29.73;14.88;;;;;;;4.40;72.79;100846.59;4959990;28;20046;-61
2021/12/25 05:33:44;;;;;;;31.27;15.18;;;;;;;4.17;73.09;100848.31;4933983;28;20058;-60
2021/12/25 05:36:13;;;;;;;29.77;15.32;;;;;;;4.40;72.22;100854.34;4949855;28;20058;-58
2021/12/25 05:38:38;;;;;;;27.90;14.40;;;;;;;4.32;72.42;100854.09;4951187;28;20524;-60
2021/12/25 05:41:04;;;;;;;32.00;14.88;;;;;;;4.16;73.25;100859.47;4962613;28;20046;-58
2021/12/25 05:43:29;;;;;;;29.95;14.68;;;;;;;4.37;72.27;100867.16;4954647;28;20114;-58
2021/12/25 05:45:55;;;;;;;32.17;14.93;;;;;;;4.17;72.84;100866.38;4960217;28;20902;-58
2021/12/25 05:48:20;;;;;;;31.80;14.48;;;;;;;4.26;72.18;100855.53;4951812;28;20038;-59
2021/12/25 05:50:46;;;;;;;29.48;14.13;;;;;;;4.11;71.77;100862.69;4962377;28;20050;-59
2021/12/25 05:53:12;;;;;;;26.27;13.88;;;;;;;3.92;72.51;100869.69;4955712;28;20379;-59
2021/12/25 05:55:37;;;;;;;32.65;14.30;;;;;;;4.13;72.19;100867.09;4953185;28;20560;-59
2021/12/25 05:58:03;;;;;;;28.27;13.63;;;;;;;4.23;72.29;100870.91;4974591;28;20046;-58
2021/12/25 06:00:30;;;;;;;28.60;14.32;;;;;;;4.30;72.40;100870.31;4967203;28;20050;-60
2021/12/25 06:02:56;;;;;;;28.80;13.73;;;;;;;4.24;71.76;100873.53;4961421;28;20042;-60
2021/12/25 06:05:22;;;;;;;25.13;13.63;;;;;;;4.24;71.86;100877.81;4956839;28;20494;-59
2021/12/25 06:07:47;;;;;;;27.95;12.48;;;;;;;3.90;72.17;100884.25;4954158;28;20058;-60
2021/12/25 06:10:13;;;;;;;27.38;13.50;;;;;;;3.97;72.75;100886.22;4959757;28;20659;-60
2021/12/25 06:12:41;;;;;;;31.05;12.98;;;;;;;3.89;72.32;100882.47;4956717;28;20570;-59
2021/12/25 06:15:07;;;;;;;28.98;12.18;;;;;;;3.94;72.49;100887.81;4975658;28;20046;-59
2021/12/25 06:17:33;;;;;;;23.83;11.30;;;;;;;3.52;71.80;100880.09;4953285;28;20043;-60
2021/12/25 06:19:58;;;;;;;24.83;11.13;;;;;;;3.35;72.51;100895.69;4964464;28;20066;-59
2021/12/25 06:22:24;;;;;;;19.63;10.27;;;;;;;3.49;71.28;100894.53;4963120;28;20076;-59
2021/12/25 06:24:49;;;;;;;19.52;9.80;;;;;;;3.61;70.88;100895.94;4963841;28;20417;-59
2021/12/25 06:27:20;;;;;;;18.13;9.32;;;;;;;3.39;71.17;100900.13;4960571;28;20042;-59
2021/12/25 06:29:47;;;;;;;18.42;9.38;;;;;;;3.65;71.40;100899.53;4948450;28;20544;-59
2021/12/25 06:32:12;;;;;;;17.40;8.68;;;;;;;3.61;71.07;100913.09;4953656;28;20093;-59
2021/12/25 06:34:38;;;;;;;15.98;8.07;;;;;;;3.33;70.69;100916.22;4961922;28;20565;-58
2021/12/25 06:37:03;;;;;;;16.10;8.93;;;;;;;3.45;71.24;100914.16;4959258;28;20506;-59
2021/12/25 06:39:29;;;;;;;17.80;9.30;;;;;;;3.63;70.79;100909.78;4951911;28;20065;-60
2021/12/25 06:41:55;;;;;;;18.58;8.45;;;;;;;3.65;70.22;100907.28;4958318;28;20366;-57
2021/12/25 06:44:23;;;;;;;17.38;7.82;;;;;;;3.48;70.48;100922.00;4957515;28;20054;-60
2021/12/25 06:46:49;;;;;;;13.90;6.70;;;;;;;3.13;70.04;100915.34;4954102;28;20038;-59
2021/12/25 06:49:14;;;;;;;12.10;6.53;;;;;;;3.31;69.14;100915.25;4952064;28;20042;-58
2021/12/25 06:51:40;;;;;;;10.98;5.88;;;;;;;3.22;68.65;100917.47;4956436;28;20104;-58
2021/12/25 06:54:05;;;;;;;10.43;5.13;;;;;;;2.98;67.58;100925.00;4943129;28;20846;-59
2021/12/25 06:56:30;;;;;;;9.68;5.05;;;;;;;3.27;68.12;100921.09;4961976;28;20445;-59
2021/12/25 06:58:56;;;;;;;8.65;4.70;;;;;;;3.05;68.07;100927.00;4961144;28;20354;-59
2021/12/25 07:01:21;;;;;;;8.18;4.25;;;;;;;2.82;66.92;100930.25;4957949;28;20056;-58
2021/12/25 07:03:47;;;;;;;7.43;3.90;;;;;;;2.94;67.05;100941.09;4966137;28;20080;-59
2021/12/25 07:06:12;;;;;;;7.03;3.85;;;;;;;3.05;67.42;100929.56;4958890;28;20054;-59
2021/12/25 07:08:37;;;;;;;8.65;4.40;;;;;;;2.69;66.55;100930.50;4955353;28;20100;-58
2021/12/25 07:11:03;;;;;;;7.43;3.80;;;;;;;2.63;67.08;100932.78;4955950;28;20650;-59
2021/12/25 07:13:28;;;;;;;8.10;4.20;;;;;;;2.67;68.24;100940.75;4955085;28;20891;-57
2021/12/25 07:15:54;;;;;;;7.38;4.07;;;;;;;2.79;67.43;100946.47;4959178;28;20180;-58
2021/12/25 07:18:19;;;;;;;8.18;4.10;;;;;;;2.89;67.45;100942.59;4960446;28;20510;-57
2021/12/25 07:20:48;;;;;;;7.40;4.18;;;;;;;2.79;68.25;100949.03;4955370;28;20857;-59
2021/12/25 07:23:14;;;;;;;8.05;4.03;;;;;;;2.69;68.50;100948.53;4961095;28;20046;-59
2021/12/25 07:25:40;;;;;;;10.55;4.30;;;;;;;2.52;68.41;100952.91;4952854;28;20104;-58
2021/12/25 07:28:05;;;;;;;8.63;3.75;;;;;;;2.06;69.45;100954.09;4955836;28;20510;-58
2021/12/25 07:30:30;;;;;;;8.43;4.00;;;;;;;2.36;69.09;100951.31;4960465;28;20260;-59
2021/12/25 07:32:56;;;;;;;10.65;3.85;;;;;;;2.42;69.07;100953.28;4973963;28;20050;-59
2021/12/25 07:35:21;;;;;;;7.90;3.42;;;;;;;2.28;68.68;100962.91;4954035;28;20046;-59
2021/12/25 07:37:47;;;;;;;7.95;3.58;;;;;;;2.39;68.23;100960.84;4952525;28;20513;-59
2021/12/25 07:40:12;;;;;;;6.03;3.42;;;;;;;2.34;68.88;100967.47;4957504;28;20505;-58
2021/12/25 07:42:38;;;;;;;8.05;3.40;;;;;;;2.12;68.68;100959.53;4960798;28;20048;-59
2021/12/25 07:45:06;;;;;;;8.82;3.50;;;;;;;2.08;69.83;100973.94;4953329;28;20046;-57
2021/12/25 07:47:34;;;;;;;6.38;3.42;;;;;;;2.11;68.71;100970.63;4954427;28;20060;-59
2021/12/25 07:50:00;;;;;;;6.18;2.88;;;;;;;2.04;67.97;100972.91;4967160;28;20092;-58
2021/12/25 07:52:26;;;;;;;6.40;3.30;;;;;;;2.02;68.09;100971.94;4958423;28;20042;-60
2021/12/25 07:54:52;;;;;;;6.47;3.25;;;;;;;1.98;68.54;100975.19;4964108;28;20061;-58
2021/12/25 07:57:18;;;;;;;5.22;2.97;;;;;;;1.76;68.10;100982.66;4960689;28;20158;-58
2021/12/25 07:59:44;;;;;;;5.00;2.72;;;;;;;1.97;67.80;100981.13;4957104;28;20039;-59
2021/12/25 08:02:09;;;;;;;4.97;2.97;;;;;;;1.78;67.43;100992.97;4960004;28;20096;-59
2021/12/25 08:04:35;;;;;;;5.88;3.10;;;;;;;1.83;68.03;100996.69;4955213;28;20038;-59
2021/12/25 08:07:00;;;;;;;6.53;3.28;;;;;;;1.98;68.49;100992.28;4957768;28;20050;-59
2021/12/25 08:09:29;;;;;;;7.45;3.55;;;;;;;1.97;69.11;101001.69;4946410;28;20603;-57
2021/12/25 08:11:56;;;;;;;7.53;3.90;;;;;;;1.80;68.74;100999.09;4963701;28;20046;-60
2021/12/25 08:14:25;;;;;;;6.18;3.35;;;;;;;1.67;69.41;101007.88;4957845;28;20466;-60
2021/12/25 08:16:55;;;;;;;7.28;3.15;;;;;;;1.76;68.38;101008.34;4957577;28;20434;-59
2021/12/25 08:19:22;;;;;;;6.88;3.28;;;;;;;1.53;68.65;101003.69;4949147;28;20465;-59
2021/12/25 08:21:48;;;;;;;5.45;2.80;;;;;;;1.41;67.03;100997.94;4958017;28;20058;-57
2021/12/25 08:24:14;;;;;;;7.97;3.00;;;;;;;1.55;67.10;101008.13;4955865;28;20061;-60
2021/12/25 08:26:39;;;;;;;7.90;2.60;;;;;;;1.55;67.82;101012.38;4963421;28;20653;-58
2021/12/25 08:29:07;;;;;;;5.25;2.72;;;;;;;1.43;68.11;101027.16;4951673;28;20077;-58
2021/12/25 08:31:32;;;;;;;4.85;2.70;;;;;;;1.43;66.67;101029.72;4953123;28;20051;-59
2021/12/25 08:34:02;;;;;;;6.03;2.70;;;;;;;1.52;66.55;101018.25;4956352;28;20058;-58
2021/12/25 08:36:27;;;;;;;5.97;2.40;;;;;;;1.38;66.70;101021.78;4957666;28;20042;-58
2021/12/25 08:38:53;;;;;;;5.32;2.90;;;;;;;1.30;68.10;101037.59;4953699;28;20918;-59
2021/12/25 08:41:20;;;;;;;4.93;2.60;;;;;;;1.25;67.25;101036.47;4954572;28;20125;-57
2021/12/25 08:43:48;;;;;;;6.22;2.75;;;;;;;1.41;67.34;101037.34;4942245;28;20061;-58
2021/12/25 08:46:18;;;;;;;6.00;2.70;;;;;;;1.64;66.44;101036.00;4948875;28;20557;-59
2021/12/25 08:48:45;;;;;;;4.47;2.65;;;;;;;1.62;67.36;101035.03;4956930;28;20316;-59
2021/12/25 08:51:11;;;;;;;6.07;2.90;;;;;;;1.76;67.49;101035.75;4956470;28;20038;-58
2021/12/25 08:53:37;;;;;;;5.22;2.85;;;;;;;1.91;66.44;101051.91;4950224;28;20153;-60
2021/12/25 08:56:03;;;;;;;6.38;2.88;;;;;;;1.79;66.61;101052.19;4957488;28;20811;-60
2021/12/25 08:58:30;;;;;;;5.60;2.63;;;;;;;1.84;66.28;101050.72;4961871;28;20658;-59
2021/12/25 09:00:56;;;;;;;4.30;2.42;;;;;;;1.58;65.10;101062.25;4958541;28;20608;-61
2021/12/25 09:03:25;;;;;;;5.88;2.20;;;;;;;1.36;66.00;101061.91;4951325;28;20042;-59
2021/12/25 09:05:54;;;;;;;4.82;2.20;;;;;;;1.49;65.15;101066.91;4943844;28;20050;-60
2021/12/25 09:08:20;;;;;;;5.22;2.40;;;;;;;1.62;66.26;101069.31;4957301;28;20069;-60
2021/12/25 09:10:45;;;;;;;3.50;2.00;;;;;;;1.40;66.40;101065.56;4959671;28;20861;-59
2021/12/25 09:13:11;;;;;;;3.88;1.92;;;;;;;1.50;66.50;101068.69;4956530;28;20494;-60
2021/12/25 09:15:36;;;;;;;4.03;2.10;;;;;;;1.29;65.21;101067.53;4948385;28;20567;-59
2021/12/25 09:18:02;;;;;;;4.20;2.10;;;;;;;1.33;66.30;101072.03;4952802;28;20560;-60
2021/12/25 09:20:27;;;;;;;4.22;2.25;;;;;;;1.02;65.93;101076.31;4963575;28;20072;-61
2021/12/25 09:22:52;;;;;;;4.50;2.20;;;;;;;1.12;65.11;101066.63;4958875;28;20034;-60
2021/12/25 09:25:19;;;;;;;4.30;2.22;;;;;;;1.35;64.53;101069.53;4961254;28;20054;-60
2021/12/25 09:27:44;;;;;;;4.60;2.33;;;;;;;1.47;64.18;101068.50;4945941;28;20116;-60
2021/12/25 09:30:10;;;;;;;4.90;2.38;;;;;;;1.52;64.58;101073.91;4955335;28;20046;-61
2021/12/25 09:32:36;;;;;;;5.22;2.30;;;;;;;1.34;64.62;101068.69;4958191;28;20065;-58
2021/12/25 09:35:02;;;;;;;4.50;2.65;;;;;;;1.23;64.81;101086.06;4961879;28;20481;-60
2021/12/25 09:37:28;;;;;;;4.88;2.50;;;;;;;1.35;64.40;101070.41;4938919;28;20129;-61
2021/12/25 09:39:53;;;;;;;5.25;2.70;;;;;;;1.49;64.03;101072.03;4957042;28;20458;-59
2021/12/25 09:42:21;;;;;;;6.32;2.95;;;;;;;1.65;63.96;101076.28;4942061;28;20088;-59
2021/12/25 09:44:47;;;;;;;5.25;2.70;;;;;;;1.77;63.82;101071.78;4959703;28;20100;-60
2021/12/25 09:47:12;;;;;;;5.15;2.65;;;;;;;1.73;63.42;101075.00;4944837;28;20506;-59
2021/12/25 09:49:38;;;;;;;5.57;2.90;;;;;;;1.73;62.96;101077.56;4944934;28;20519;-59
2021/12/25 09:52:03;;;;;;;4.32;2.80;;;;;;;1.72;62.75;101090.34;4953108;23;20145;-58
2021/12/25 09:54:29;;;;;;;6.40;2.80;;;;;;;1.16;64.68;101086.53;4958363;28;20062;-59
2021/12/25 09:56:56;;;;;;;8.13;2.78;;;;;;;1.31;64.29;101094.19;4954012;28;20026;-59
2021/12/25 09:59:22;;;;;;;4.45;2.80;;;;;;;1.54;64.26;101090.25;4949081;28;20030;-58
2021/12/25 10:01:50;;;;;;;6.55;2.83;;;;;;;1.55;64.20;101095.47;4953677;28;20070;-59
2021/12/25 10:04:36;;;;;;;5.13;2.67;;;;;;;1.52;63.57;101100.47;4958256;28;20553;-58
2021/12/25 10:07:21;;;;;;;5.88;2.95;;;;;;;1.38;64.88;101101.41;4956319;28;20486;-59
2021/12/25 10:10:02;;;;;;;5.97;2.92;;;;;;;1.48;64.57;101102.78;4948366;28;20450;-61
2021/12/25 10:12:34;;;;;;;6.88;2.85;;;;;;;1.58;63.65;101100.81;4957283;28;20042;-59
2021/12/25 10:15:00;;;;;;;5.38;2.80;;;;;;;1.25;64.64;101099.00;4943037;28;20046;-59
2021/12/25 10:17:28;;;;;;;4.95;2.63;;;;;;;1.26;64.13;101107.59;4951152;28;20039;-62
2021/12/25 10:20:07;;;;;;;5.07;2.72;;;;;;;1.30;62.87;101106.94;4976267;28;20557;-60
2021/12/25 10:22:34;;;;;;;5.47;2.88;;;;;;;1.49;63.14;101104.56;4958066;28;20097;-60
2021/12/25 10:25:10;;;;;;;5.45;2.72;;;;;;;1.38;63.89;101096.28;4957446;28;20323;-59
2021/12/25 10:27:36;;;;;;;3.78;2.25;;;;;;;1.31;62.53;101107.03;4953192;28;20097;-59
2021/12/25 10:30:05;;;;;;;4.10;2.42;;;;;;;1.21;62.82;101103.09;4958925;28;20293;-60
2021/12/25 10:32:31;;;;;;;4.07;2.15;;;;;;;1.16;63.02;101106.19;4948939;28;20579;-59
2021/12/25 10:34:56;;;;;;;4.85;2.60;;;;;;;1.25;62.97;101099.00;4960502;28;20034;-60
2021/12/25 10:37:23;;;;;;;6.00;2.70;;;;;;;1.34;62.44;101091.78;4956980;28;20031;-59
2021/12/25 10:39:49;;;;;;;4.40;2.30;;;;;;;1.12;62.83;101106.81;4956249;28;20050;-61
2021/12/25 10:42:19;;;;;;;4.72;2.40;;;;;;;1.30;63.04;101096.66;4953123;28;20129;-60
2021/12/25 10:44:47;;;;;;;4.47;2.40;;;;;;;1.21;61.82;101102.22;4958771;28;20046;-60
2021/12/25 10:47:22;;;;;;;4.93;2.13;;;;;;;1.37;60.43;101109.94;4944699;28;20148;-59
2021/12/25 10:49:49;;;;;;;;;;;;;;;1.13;59.96;101108.59;4955155;28;20544;-60
2021/12/25 10:52:22;;;;;;;4.47;2.03;;;;;;;1.25;61.74;101106.69;4955557;28;19925;-60
2021/12/25 10:55:02;;;;;;;3.13;1.80;;;;;;;1.45;60.31;101095.81;4960651;28;20080;-59
2021/12/25 10:57:36;;;;;;;3.92;1.85;;;;;;;1.20;60.43;101106.44;4948670;28;20196;-58
2021/12/25 11:00:22;;;;;;;4.77;2.00;;;;;;;1.45;59.54;101095.81;4956132;28;20055;-56
2021/12/25 11:02:49;;;;;;;4.47;2.38;;;;;;;1.74;59.62;101091.31;4944694;28;20712;-58
2021/12/25 11:05:16;;;;;;;3.92;2.00;;;;;;;1.58;59.50;101080.25;4955392;28;20535;-60
2021/12/25 11:07:42;;;;;;;3.63;1.80;;;;;;;1.50;56.76;101106.31;4950255;28;20042;-59
2021/12/25 11:10:10;;;;;;;4.18;2.10;;;;;;;1.58;58.40;101085.38;4968237;28;20046;-59
2021/12/25 11:12:36;;;;;;;3.67;1.98;;;;;;;1.63;57.70;101093.31;4957378;28;20070;-59
2021/12/25 11:15:30;;;;;;;5.68;1.90;;;;;;;1.83;56.82;101087.50;4962115;28;20212;-59
2021/12/25 11:18:05;;;;;;;4.80;1.90;;;;;;;1.90;57.69;101093.84;4955760;28;20062;-59
2021/12/25 11:20:37;;;;;;;3.45;1.55;;;;;;;1.72;57.30;101095.47;4958618;28;20165;-59
2021/12/25 11:23:08;;;;;;;5.20;1.80;;;;;;;1.75;57.00;101093.97;4963830;28;20129;-58
2021/12/25 11:25:36;;;;;;;3.22;1.80;;;;;;;1.62;57.80;101096.69;4938650;28;20573;-59
2021/12/25 11:28:06;;;;;;;2.63;1.70;;;;;;;1.81;58.26;101103.69;4961464;28;20062;-59
2021/12/25 11:30:33;;;;;;;3.17;1.88;;;;;;;1.73;57.41;101084.41;4958578;28;20117;-60
2021/12/25 11:32:59;;;;;;;3.78;2.05;;;;;;;2.11;56.79;101076.97;4946957;28;20038;-60
2021/12/25 11:35:24;;;;;;;3.97;2.05;;;;;;;2.18;57.27;101078.16;4953796;28;20050;-60
2021/12/25 11:37:52;;;;;;;3.45;1.80;;;;;;;2.16;55.87;101084.91;4952000;28;20470;-59
2021/12/25 11:40:19;;;;;;;3.35;1.70;;;;;;;2.02;57.54;101074.78;4961759;28;20045;-59
2021/12/25 11:42:46;;;;;;;3.33;1.50;;;;;;;1.89;56.52;101079.25;4949954;28;20045;-60
2021/12/25 11:45:18;;;;;;;4.22;1.70;;;;;;;2.09;56.98;101073.41;4954182;28;20178;-60
2021/12/25 11:47:46;;;;;;;3.75;1.80;;;;;;;2.11;55.71;101076.06;4939358;28;20050;-59
2021/12/25 11:50:21;;;;;;;4.85;1.73;;;;;;;2.10;55.85;101071.72;4952629;28;20133;-59
2021/12/25 11:53:31;;;;;;;3.20;1.73;;;;;;;2.29;55.93;101072.72;4951313;28;20356;-59
2021/12/25 11:56:32;;;;;;;4.82;1.50;;;;;;;2.39;55.35;101074.06;4957708;28;20038;-60
2021/12/25 11:58:55;;;;;;;3.28;1.52;;;;;;;2.31;55.22;101073.69;4958417;28;20046;-59
2021/12/25 12:01:25;;;;;;;4.72;1.80;;;;;;;2.29;55.34;101069.28;4955462;28;20038;-58
2021/12/25 12:03:56;;;;;;;3.08;1.63;;;;;;;2.25;55.74;101077.66;4943681;28;20050;-59
2021/12/25 12:06:51;;;;;;;4.07;1.83;;;;;;;2.34;56.42;101054.94;4951669;28;20078;-59
2021/12/25 12:09:20;;;;;;;2.65;1.52;;;;;;;2.47;55.37;101064.13;4954679;28;20113;-59
2021/12/25 12:11:50;;;;;;;2.25;1.55;;;;;;;2.47;55.42;101069.28;4952128;28;20223;-60
2021/12/25 12:14:28;;;;;;;3.22;1.55;;;;;;;2.37;55.21;101060.25;4953404;28;20097;-59
2021/12/25 12:17:00;;;;;;;3.47;1.50;;;;;;;2.53;53.37;101062.75;4947043;28;20038;-59
2021/12/25 12:19:38;;;;;;;3.17;1.70;;;;;;;2.44;56.00;101057.13;4954726;28;20125;-59
2021/12/25 12:22:26;;;;;;;3.92;1.90;;;;;;;2.43;54.72;101069.16;4947975;28;20050;-58
2021/12/25 12:27:40;;;;;;;2.95;1.50;;;;;;;2.55;54.67;101060.25;4945784;28;20058;-59
2021/12/25 12:30:08;;;;;;;2.38;1.40;;;;;;;2.29;53.05;101053.84;4959538;28;20050;-59
2021/12/25 12:32:35;;;;;;;2.75;1.40;;;;;;;2.58;51.50;101056.13;4949954;28;20034;-58
2021/12/25 12:35:01;;;;;;;2.72;1.50;;;;;;;2.57;51.52;101051.78;4956473;28;20050;-58
2021/12/25 12:37:30;;;;;;;2.97;1.42;;;;;;;2.59;52.21;101046.72;4951935;28;20777;-57
2021/12/25 12:39:58;;;;;;;3.67;1.50;;;;;;;2.59;51.71;101052.75;4951483;28;20356;-59
2021/12/25 12:42:42;;;;;;;2.30;1.27;;;;;;;2.77;51.17;101040.75;4959334;28;20573;-59
2021/12/25 12:45:10;;;;;;;3.07;1.60;;;;;;;2.58;53.29;101045.84;4958506;28;20093;-60
2021/12/25 12:47:35;;;;;;;2.97;1.50;;;;;;;2.34;53.61;101035.25;4949928;28;20057;-61
2021/12/25 12:50:01;;;;;;;2.80;1.42;;;;;;;2.64;52.09;101033.25;4959686;28;20042;-58
2021/12/25 12:52:37;;;;;;;3.42;1.77;;;;;;;2.91;52.40;101027.66;4962820;28;20212;-60